메인 페이지
METAR-TAF:

METAR-TAF

공항 :

코나크리, 기니

위도: 09-34N, 경도: 013-37W, 고도: 26m

현재 날씨관측

예보는 49분 전, 23:00시(UTC)에 발표되었습니다.
4kt
온도 29°C
습도 70%
기압 1011 hPa
시정 10km 이상
1500m 미만 상공 구름 및 적란운 없음

METAR: GUCY 312300Z 26004KT CAVOK 29/23 Q1011 NOSIG

시각: 23:49 (23:49 UTC)

예보

예보는 49분 전, 23:00시(UTC)에 발표되었습니다.
예보 대상 시간: 01일 00시부터 02일 06시까지 (UTC)
6kt
시정 10km 이상
고도 1500ft 상공 구름 조금
고도 11000ft 상공 구름 보통
전환 중
01일 04시부터 01일 08시까지 (UTC)
여러 방향의 바람 2kt
시정: 4000m
고도 1500ft 상공 구름 보통
고도 11000ft 상공 구름 많음
연무
일시적
01일 14시부터 01일 18시까지 (UTC)
시정 10km 이상
1500m 미만 상공 구름 및 적란운 없음

TAF: GUCY 312300Z 0100/0206 26006KT 9999 FEW015 SCT110 BECMG 0104/0108 VRB02KT 4000 HZ SCT015 BKN110 TEMPO 0114/0118 CAVOK

4,000개 이상의 공항 관측 자료 및 예보 (METAR 및 TAF 보고).

지도상에서 검색 가능한 기상관측소가 노란 점과 빨간 점으로 표시되어 있습니다.

기상관측소 명을 보려면 표시 위로 마우스를 이동하세요.

날씨 관측과 예보를 보려면 클릭하세요.

지도 변경 : 확대하려면 엑스 표시가 있는 녹색 버튼, 축소하려면 빼기 표시가 있는 녹색 버튼, 다음 페이지의 지도를 보려면 녹색 화살표를 클릭하세요.


METAR-TAF: